»·PEaware :: SWA9800 KTUS-KPHX

SWA9800 :: KTUS-KPHX

FLIGHT INFORMATION

Flight Status: Arrived
Operator:
Southwest Airlines
More flights by this operator :: More flights under this callsign
Pilot: Alex K. (14822)
Aircraft: BOEING 737-200
(B732)
More flights by this aircraft type
Origin: KTUS Tucson Intl
United States
Destination: KPHX Phoenix Sky Harbor Intl
United States
More flights between these airports :: More routes between these airports
Route: +TUS SUNNS8
File this flight plan on PilotEdge
Remarks: Delivery Test Flight
Altitude:
(Current/Filed)
22,000ft
Speed:
(Current/Filed)
400kts
Departed: 10-Jan-18 02:59 PM
Arrived: 10-Jan-18 03:26 PM
Distance/Time
Traveled:
95nm/0:27
Distance/Time
To Go:
Arrived

Flight Plot

Page will automatically refresh every two minutes.

Flight plan parsing failed; only flown route is shown


Map Options




Map Legend


Flown Route
Filed Route
Departure Airport
Arrival Airport
Navaid (VOR, NDB)
Fix

Horizontal Profiles

Position Reports

Time Latitude Longitude Heading Altitude Ground
Speed
10-Jan-18 14:49 32.119990 -110.938242 46 2601ft 0kts
10-Jan-18 14:50 32.119990 -110.938242 46 2601ft 0kts
10-Jan-18 14:51 32.119990 -110.938242 46 2601ft 0kts
10-Jan-18 14:52 32.119990 -110.938242 46 2601ft 0kts
10-Jan-18 14:53 32.119990 -110.938242 46 2601ft 0kts
10-Jan-18 14:54 32.119990 -110.938242 46 2601ft 0kts
10-Jan-18 14:55 32.119990 -110.938242 46 2601ft 0kts
10-Jan-18 14:56 32.119990 -110.938242 46 2601ft 0kts
10-Jan-18 14:57 32.119990 -110.938242 46 2601ft 0kts
10-Jan-18 14:58 32.119990 -110.938242 46 2601ft 0kts
10-Jan-18 14:59 32.120003 -110.938215 65 2601ft 0kts
10-Jan-18 15:00 32.119611 -110.938315 228 2602ft 0kts
10-Jan-18 15:01 32.118958 -110.938285 138 2603ft 13kts
10-Jan-18 15:02 32.114439 -110.934926 135 2617ft 27kts
10-Jan-18 15:03 32.108506 -110.927990 136 2637ft 31kts
10-Jan-18 15:04 32.102907 -110.922513 223 2655ft 15kts
10-Jan-18 15:05 32.113838 -110.936543 314 2841ft 150kts
10-Jan-18 15:06 32.147897 -110.977690 311 4535ft 196kts
10-Jan-18 15:07 32.200079 -111.020393 1 5688ft 283kts
10-Jan-18 15:08 32.274041 -111.031069 332 8884ft 281kts
10-Jan-18 15:09 32.343013 -111.071730 327 12360ft 261kts
10-Jan-18 15:10 32.409089 -111.112773 326 14436ft 273kts
10-Jan-18 15:11 32.486511 -111.115627 9 15889ft 312kts
10-Jan-18 15:12 32.569864 -111.083117 9 17231ft 321kts
10-Jan-18 15:13 32.661055 -111.061035 343 17358ft 344kts
10-Jan-18 15:14 32.756633 -111.082890 341 18568ft 354kts
10-Jan-18 15:15 32.821121 -111.155900 293 19804ft 338kts
10-Jan-18 15:16 32.872561 -111.248116 306 19025ft 335kts
10-Jan-18 15:17 32.933326 -111.331578 308 17789ft 331kts
10-Jan-18 15:18 32.994636 -111.410623 309 15958ft 321kts
10-Jan-18 15:19 33.053004 -111.487531 301 14995ft 309kts
10-Jan-18 15:20 33.106733 -111.559121 335 14510ft 323kts
10-Jan-18 15:21 33.193050 -111.583813 340 12574ft 322kts
10-Jan-18 15:22 33.270443 -111.606264 346 11734ft 274kts
10-Jan-18 15:23 33.346027 -111.584242 10 10212ft 277kts
10-Jan-18 15:24 33.421340 -111.564984 345 7910ft 280kts
10-Jan-18 15:25 33.453444 -111.636717 263 5998ft 266kts
10-Jan-18 15:26 33.430848 -111.718870 253 4330ft 259kts
10-Jan-18 15:27 33.428567 -111.797565 269 3986ft 213kts
10-Jan-18 15:28 33.428673 -111.859138 268 3471ft 149kts
10-Jan-18 15:29 33.428727 -111.903958 268 2729ft 133kts
10-Jan-18 15:30 33.428791 -111.948191 268 2025ft 133kts
10-Jan-18 15:31 33.428873 -111.991836 268 1310ft 130kts
10-Jan-18 15:32 33.429712 -112.016505 26 1121ft 18kts
10-Jan-18 15:33 33.432152 -112.013203 88 1125ft 15kts
10-Jan-18 15:34 33.432133 -112.006858 90 1128ft 23kts
10-Jan-18 15:35 33.432314 -111.998267 51 1124ft 15kts
10-Jan-18 15:36 33.433726 -111.998750 323 1125ft 0kts
10-Jan-18 15:37 33.433726 -111.998750 323 1125ft 0kts
10-Jan-18 15:38 33.433726 -111.998750 323 1125ft 0kts
10-Jan-18 15:39 33.433726 -111.998750 323 1125ft 0kts
10-Jan-18 15:40 33.433726 -111.998750 323 1125ft 0kts
10-Jan-18 15:41 33.433726 -111.998750 323 1125ft 0kts
10-Jan-18 15:42 33.433726 -111.998750 323 1125ft 0kts
10-Jan-18 15:43 33.433726 -111.998750 323 1125ft 0kts
10-Jan-18 15:44 33.433726 -111.998750 323 1125ft 0kts
10-Jan-18 15:45 33.433726 -111.998750 323 1125ft 0kts

Navigation Log

Ident Type
Flight plan parsing failed, navigation log unavailable